sensor_id;sensor_type;location;lat;lon;timestamp;temperature;humidity
10883;DHT22;5494;51.796;10.952;2023-11-22T00:00:38;1.60;99.90
10883;DHT22;5494;51.796;10.952;2023-11-22T00:03:06;1.50;99.90
10883;DHT22;5494;51.796;10.952;2023-11-22T00:05:35;1.60;99.90
10883;DHT22;5494;51.796;10.952;2023-11-22T00:08:04;1.60;99.90
10883;DHT22;5494;51.796;10.952;2023-11-22T00:10:32;1.50;99.90
10883;DHT22;5494;51.796;10.952;2023-11-22T00:13:01;1.60;99.90
10883;DHT22;5494;51.796;10.952;2023-11-22T00:15:30;1.60;99.90
10883;DHT22;5494;51.796;10.952;2023-11-22T00:17:58;1.60;99.90
10883;DHT22;5494;51.796;10.952;2023-11-22T00:20:35;1.60;99.90
10883;DHT22;5494;51.796;10.952;2023-11-22T00:23:03;1.80;99.90
10883;DHT22;5494;51.796;10.952;2023-11-22T00:25:32;1.80;99.90
10883;DHT22;5494;51.796;10.952;2023-11-22T00:28:00;1.80;99.90
10883;DHT22;5494;51.796;10.952;2023-11-22T00:30:29;1.80;99.90
10883;DHT22;5494;51.796;10.952;2023-11-22T00:32:57;1.80;99.90
10883;DHT22;5494;51.796;10.952;2023-11-22T00:35:26;1.80;99.90
10883;DHT22;5494;51.796;10.952;2023-11-22T00:37:54;1.80;99.90
10883;DHT22;5494;51.796;10.952;2023-11-22T00:40:22;1.70;99.90
10883;DHT22;5494;51.796;10.952;2023-11-22T00:42:50;1.60;99.90
10883;DHT22;5494;51.796;10.952;2023-11-22T00:45:18;1.50;99.90
10883;DHT22;5494;51.796;10.952;2023-11-22T00:47:48;1.50;99.90
10883;DHT22;5494;51.796;10.952;2023-11-22T00:50:17;1.40;99.90
10883;DHT22;5494;51.796;10.952;2023-11-22T00:52:46;1.40;99.90
10883;DHT22;5494;51.796;10.952;2023-11-22T00:55:15;1.30;99.90
10883;DHT22;5494;51.796;10.952;2023-11-22T00:57:43;1.30;99.90
10883;DHT22;5494;51.796;10.952;2023-11-22T01:00:12;1.30;99.90
10883;DHT22;5494;51.796;10.952;2023-11-22T01:02:42;1.20;99.90
10883;DHT22;5494;51.796;10.952;2023-11-22T01:05:11;1.20;99.90
10883;DHT22;5494;51.796;10.952;2023-11-22T01:07:42;1.10;99.90
10883;DHT22;5494;51.796;10.952;2023-11-22T01:10:10;1.10;99.90
10883;DHT22;5494;51.796;10.952;2023-11-22T01:12:38;1.10;99.90
10883;DHT22;5494;51.796;10.952;2023-11-22T01:15:08;1.00;99.90
10883;DHT22;5494;51.796;10.952;2023-11-22T01:17:37;1.00;99.90
10883;DHT22;5494;51.796;10.952;2023-11-22T01:20:06;0.90;99.90
10883;DHT22;5494;51.796;10.952;2023-11-22T01:22:39;0.80;99.90
10883;DHT22;5494;51.796;10.952;2023-11-22T01:25:08;0.80;99.90
10883;DHT22;5494;51.796;10.952;2023-11-22T01:27:36;0.70;99.90
10883;DHT22;5494;51.796;10.952;2023-11-22T01:30:05;0.70;99.90
10883;DHT22;5494;51.796;10.952;2023-11-22T01:32:35;0.80;99.90
10883;DHT22;5494;51.796;10.952;2023-11-22T01:35:04;0.80;99.90
10883;DHT22;5494;51.796;10.952;2023-11-22T01:37:33;0.70;99.90
10883;DHT22;5494;51.796;10.952;2023-11-22T01:40:02;0.60;99.90
10883;DHT22;5494;51.796;10.952;2023-11-22T01:42:31;0.60;99.90
10883;DHT22;5494;51.796;10.952;2023-11-22T01:44:59;0.50;99.90
10883;DHT22;5494;51.796;10.952;2023-11-22T01:47:28;0.50;99.90
10883;DHT22;5494;51.796;10.952;2023-11-22T01:49:57;0.40;99.90
10883;DHT22;5494;51.796;10.952;2023-11-22T01:52:26;0.40;99.90
10883;DHT22;5494;51.796;10.952;2023-11-22T01:54:55;0.30;99.90
10883;DHT22;5494;51.796;10.952;2023-11-22T01:57:25;0.20;99.90
10883;DHT22;5494;51.796;10.952;2023-11-22T01:59:54;0.10;99.90
10883;DHT22;5494;51.796;10.952;2023-11-22T02:02:23;0.20;99.90
10883;DHT22;5494;51.796;10.952;2023-11-22T02:04:51;0.20;99.90
10883;DHT22;5494;51.796;10.952;2023-11-22T02:07:19;0.00;99.90
10883;DHT22;5494;51.796;10.952;2023-11-22T02:09:48;0.00;99.90
10883;DHT22;5494;51.796;10.952;2023-11-22T02:12:18;0.00;99.90
10883;DHT22;5494;51.796;10.952;2023-11-22T02:14:49;0.00;99.90
10883;DHT22;5494;51.796;10.952;2023-11-22T02:17:17;0.00;99.90
10883;DHT22;5494;51.796;10.952;2023-11-22T02:19:46;0.00;99.90
10883;DHT22;5494;51.796;10.952;2023-11-22T02:22:15;-0.10;99.90
10883;DHT22;5494;51.796;10.952;2023-11-22T02:24:45;-0.10;99.90
10883;DHT22;5494;51.796;10.952;2023-11-22T02:27:13;-0.10;99.90
10883;DHT22;5494;51.796;10.952;2023-11-22T02:29:41;-0.10;99.90
10883;DHT22;5494;51.796;10.952;2023-11-22T02:32:10;-0.10;99.90
10883;DHT22;5494;51.796;10.952;2023-11-22T02:34:38;-0.10;99.90
10883;DHT22;5494;51.796;10.952;2023-11-22T02:37:06;-0.10;99.90
10883;DHT22;5494;51.796;10.952;2023-11-22T02:39:43;-0.10;99.90
10883;DHT22;5494;51.796;10.952;2023-11-22T02:42:19;-0.10;99.90
10883;DHT22;5494;51.796;10.952;2023-11-22T02:44:48;-0.10;99.90
10883;DHT22;5494;51.796;10.952;2023-11-22T02:47:16;0.00;99.90
10883;DHT22;5494;51.796;10.952;2023-11-22T02:49:44;0.00;99.90
10883;DHT22;5494;51.796;10.952;2023-11-22T02:52:12;0.10;99.90
10883;DHT22;5494;51.796;10.952;2023-11-22T02:54:43;0.30;99.90
10883;DHT22;5494;51.796;10.952;2023-11-22T02:57:12;0.50;99.90
10883;DHT22;5494;51.796;10.952;2023-11-22T02:59:41;0.60;99.90
10883;DHT22;5494;51.796;10.952;2023-11-22T03:02:09;0.60;99.90
10883;DHT22;5494;51.796;10.952;2023-11-22T03:04:38;0.60;99.90
10883;DHT22;5494;51.796;10.952;2023-11-22T03:07:06;0.70;99.90
10883;DHT22;5494;51.796;10.952;2023-11-22T03:09:34;0.80;99.90
10883;DHT22;5494;51.796;10.952;2023-11-22T03:12:04;0.80;99.90
10883;DHT22;5494;51.796;10.952;2023-11-22T03:14:34;0.90;99.90
10883;DHT22;5494;51.796;10.952;2023-11-22T03:17:04;0.80;99.90
10883;DHT22;5494;51.796;10.952;2023-11-22T03:19:32;0.70;99.90
10883;DHT22;5494;51.796;10.952;2023-11-22T03:22:00;0.60;99.90
10883;DHT22;5494;51.796;10.952;2023-11-22T03:24:30;0.60;99.90
10883;DHT22;5494;51.796;10.952;2023-11-22T03:26:59;0.50;99.90
10883;DHT22;5494;51.796;10.952;2023-11-22T03:29:27;0.40;99.90
10883;DHT22;5494;51.796;10.952;2023-11-22T03:31:57;1.60;99.90
10883;DHT22;5494;51.796;10.952;2023-11-22T03:34:25;0.40;99.90
10883;DHT22;5494;51.796;10.952;2023-11-22T03:36:53;0.50;99.90
10883;DHT22;5494;51.796;10.952;2023-11-22T03:39:21;0.40;99.90
10883;DHT22;5494;51.796;10.952;2023-11-22T03:41:50;0.40;99.90
10883;DHT22;5494;51.796;10.952;2023-11-22T03:44:18;0.40;99.90
10883;DHT22;5494;51.796;10.952;2023-11-22T03:46:46;0.30;99.90
10883;DHT22;5494;51.796;10.952;2023-11-22T03:49:16;0.40;99.90
10883;DHT22;5494;51.796;10.952;2023-11-22T03:51:44;0.40;99.90
10883;DHT22;5494;51.796;10.952;2023-11-22T03:54:12;0.30;99.90
10883;DHT22;5494;51.796;10.952;2023-11-22T03:56:41;0.20;99.90
10883;DHT22;5494;51.796;10.952;2023-11-22T03:59:09;0.10;99.90
10883;DHT22;5494;51.796;10.952;2023-11-22T04:01:37;0.10;99.90
10883;DHT22;5494;51.796;10.952;2023-11-22T04:04:05;0.10;99.90
10883;DHT22;5494;51.796;10.952;2023-11-22T04:06:37;0.00;99.90
10883;DHT22;5494;51.796;10.952;2023-11-22T04:09:08;-0.10;99.90
10883;DHT22;5494;51.796;10.952;2023-11-22T04:11:39;-0.20;99.90
10883;DHT22;5494;51.796;10.952;2023-11-22T04:14:07;-0.30;99.90
10883;DHT22;5494;51.796;10.952;2023-11-22T04:16:35;-0.40;99.90
10883;DHT22;5494;51.796;10.952;2023-11-22T04:19:04;-0.40;99.90
10883;DHT22;5494;51.796;10.952;2023-11-22T04:21:32;-0.50;99.90
10883;DHT22;5494;51.796;10.952;2023-11-22T04:24:02;-0.50;99.90
10883;DHT22;5494;51.796;10.952;2023-11-22T04:26:31;-0.50;99.90
10883;DHT22;5494;51.796;10.952;2023-11-22T04:28:59;-0.50;99.90
10883;DHT22;5494;51.796;10.952;2023-11-22T04:31:27;-0.40;99.90
10883;DHT22;5494;51.796;10.952;2023-11-22T04:33:55;-0.30;99.90
10883;DHT22;5494;51.796;10.952;2023-11-22T04:36:24;-0.30;99.90
10883;DHT22;5494;51.796;10.952;2023-11-22T04:38:52;-0.20;99.90
10883;DHT22;5494;51.796;10.952;2023-11-22T04:41:22;-0.20;99.90
10883;DHT22;5494;51.796;10.952;2023-11-22T04:43:53;-0.20;99.90
10883;DHT22;5494;51.796;10.952;2023-11-22T04:46:21;-0.10;99.90
10883;DHT22;5494;51.796;10.952;2023-11-22T04:48:50;0.00;99.90
10883;DHT22;5494;51.796;10.952;2023-11-22T04:51:19;0.10;99.90
10883;DHT22;5494;51.796;10.952;2023-11-22T04:53:47;0.10;99.90
10883;DHT22;5494;51.796;10.952;2023-11-22T04:56:15;0.10;99.90
10883;DHT22;5494;51.796;10.952;2023-11-22T04:58:44;0.20;99.90
10883;DHT22;5494;51.796;10.952;2023-11-22T05:01:12;0.10;99.90
10883;DHT22;5494;51.796;10.952;2023-11-22T05:03:44;0.10;99.90
10883;DHT22;5494;51.796;10.952;2023-11-22T05:06:12;0.10;99.90
10883;DHT22;5494;51.796;10.952;2023-11-22T05:08:40;0.00;99.90
10883;DHT22;5494;51.796;10.952;2023-11-22T05:11:08;0.00;99.90
10883;DHT22;5494;51.796;10.952;2023-11-22T05:13:36;0.00;57.70
10883;DHT22;5494;51.796;10.952;2023-11-22T05:16:08;-0.10;82.10
10883;DHT22;5494;51.796;10.952;2023-11-22T05:18:36;-0.10;66.30
10883;DHT22;5494;51.796;10.952;2023-11-22T05:21:04;-0.10;91.60
10883;DHT22;5494;51.796;10.952;2023-11-22T05:23:32;-0.20;88.70
10883;DHT22;5494;51.796;10.952;2023-11-22T05:26:01;-0.20;96.10
10883;DHT22;5494;51.796;10.952;2023-11-22T05:28:30;-0.20;94.40
10883;DHT22;5494;51.796;10.952;2023-11-22T05:31:00;-0.20;93.10
10883;DHT22;5494;51.796;10.952;2023-11-22T05:33:31;-0.20;63.20
10883;DHT22;5494;51.796;10.952;2023-11-22T05:35:59;-0.30;80.40
10883;DHT22;5494;51.796;10.952;2023-11-22T05:38:27;-0.50;99.90
10883;DHT22;5494;51.796;10.952;2023-11-22T05:40:55;-0.50;94.60
10883;DHT22;5494;51.796;10.952;2023-11-22T05:43:23;-0.50;99.90
10883;DHT22;5494;51.796;10.952;2023-11-22T05:45:54;-0.60;99.90
10883;DHT22;5494;51.796;10.952;2023-11-22T05:48:22;-0.50;99.90
10883;DHT22;5494;51.796;10.952;2023-11-22T05:50:51;-0.50;99.90
10883;DHT22;5494;51.796;10.952;2023-11-22T05:53:20;-0.50;99.90
10883;DHT22;5494;51.796;10.952;2023-11-22T05:55:48;-0.60;99.90
10883;DHT22;5494;51.796;10.952;2023-11-22T05:58:17;-0.60;99.90
10883;DHT22;5494;51.796;10.952;2023-11-22T06:00:46;-0.70;99.90
10883;DHT22;5494;51.796;10.952;2023-11-22T06:03:14;-0.70;99.90
10883;DHT22;5494;51.796;10.952;2023-11-22T06:05:42;-0.60;99.90
10883;DHT22;5494;51.796;10.952;2023-11-22T06:08:12;-0.60;99.90
10883;DHT22;5494;51.796;10.952;2023-11-22T06:10:40;-0.60;99.90
10883;DHT22;5494;51.796;10.952;2023-11-22T06:13:08;-0.60;99.90
10883;DHT22;5494;51.796;10.952;2023-11-22T06:15:39;-0.60;99.90
10883;DHT22;5494;51.796;10.952;2023-11-22T06:18:07;-0.60;99.90
10883;DHT22;5494;51.796;10.952;2023-11-22T06:20:35;-0.60;99.90
10883;DHT22;5494;51.796;10.952;2023-11-22T06:23:03;-0.60;99.90
10883;DHT22;5494;51.796;10.952;2023-11-22T06:25:33;-0.60;99.90
10883;DHT22;5494;51.796;10.952;2023-11-22T06:28:03;-0.60;99.90
10883;DHT22;5494;51.796;10.952;2023-11-22T06:30:31;-0.50;99.90
10883;DHT22;5494;51.796;10.952;2023-11-22T06:33:00;-0.50;99.90
10883;DHT22;5494;51.796;10.952;2023-11-22T06:35:28;-0.60;99.90
10883;DHT22;5494;51.796;10.952;2023-11-22T06:37:56;-0.60;99.90
10883;DHT22;5494;51.796;10.952;2023-11-22T06:40:24;-0.60;99.90
10883;DHT22;5494;51.796;10.952;2023-11-22T06:42:53;-0.50;99.90
10883;DHT22;5494;51.796;10.952;2023-11-22T06:45:22;-0.50;99.90
10883;DHT22;5494;51.796;10.952;2023-11-22T06:47:50;-0.40;99.90
10883;DHT22;5494;51.796;10.952;2023-11-22T06:50:19;-0.40;99.90
10883;DHT22;5494;51.796;10.952;2023-11-22T06:52:47;-0.40;99.90
10883;DHT22;5494;51.796;10.952;2023-11-22T06:55:19;-0.30;99.90
10883;DHT22;5494;51.796;10.952;2023-11-22T06:57:47;-0.30;99.90
10883;DHT22;5494;51.796;10.952;2023-11-22T07:00:18;-0.30;99.90
10883;DHT22;5494;51.796;10.952;2023-11-22T07:02:47;-0.20;99.90
10883;DHT22;5494;51.796;10.952;2023-11-22T07:05:15;-0.20;99.90
10883;DHT22;5494;51.796;10.952;2023-11-22T07:07:43;-0.10;99.90
10883;DHT22;5494;51.796;10.952;2023-11-22T07:10:13;-0.10;99.90
10883;DHT22;5494;51.796;10.952;2023-11-22T07:12:42;-0.10;99.90
10883;DHT22;5494;51.796;10.952;2023-11-22T07:15:10;-0.10;99.90
10883;DHT22;5494;51.796;10.952;2023-11-22T07:17:39;-0.10;99.90
10883;DHT22;5494;51.796;10.952;2023-11-22T07:20:09;0.00;99.90
10883;DHT22;5494;51.796;10.952;2023-11-22T07:22:43;0.00;99.90
10883;DHT22;5494;51.796;10.952;2023-11-22T07:25:12;0.10;99.90
10883;DHT22;5494;51.796;10.952;2023-11-22T07:27:45;0.10;99.90
10883;DHT22;5494;51.796;10.952;2023-11-22T07:30:14;0.00;90.30
10883;DHT22;5494;51.796;10.952;2023-11-22T07:32:44;0.00;70.90
10883;DHT22;5494;51.796;10.952;2023-11-22T07:35:12;-0.10;89.50
10883;DHT22;5494;51.796;10.952;2023-11-22T07:37:42;-0.10;99.90
10883;DHT22;5494;51.796;10.952;2023-11-22T07:40:11;0.00;99.90
10883;DHT22;5494;51.796;10.952;2023-11-22T07:42:40;0.00;99.90
10883;DHT22;5494;51.796;10.952;2023-11-22T07:45:11;0.00;99.90
10883;DHT22;5494;51.796;10.952;2023-11-22T07:47:41;0.00;99.90
10883;DHT22;5494;51.796;10.952;2023-11-22T07:50:12;0.00;99.90
10883;DHT22;5494;51.796;10.952;2023-11-22T07:52:40;0.20;99.90
10883;DHT22;5494;51.796;10.952;2023-11-22T07:55:08;0.10;91.70
10883;DHT22;5494;51.796;10.952;2023-11-22T07:57:37;0.00;76.10
10883;DHT22;5494;51.796;10.952;2023-11-22T08:00:07;-0.10;99.00
10883;DHT22;5494;51.796;10.952;2023-11-22T08:02:38;-0.10;99.90
10883;DHT22;5494;51.796;10.952;2023-11-22T08:05:07;-0.10;99.90
10883;DHT22;5494;51.796;10.952;2023-11-22T08:07:37;-0.10;99.90
10883;DHT22;5494;51.796;10.952;2023-11-22T08:10:09;-0.10;99.90
10883;DHT22;5494;51.796;10.952;2023-11-22T08:12:46;0.10;99.90
10883;DHT22;5494;51.796;10.952;2023-11-22T08:15:16;0.20;94.70
10883;DHT22;5494;51.796;10.952;2023-11-22T08:17:46;0.20;99.90
10883;DHT22;5494;51.796;10.952;2023-11-22T08:20:16;0.10;99.90
10883;DHT22;5494;51.796;10.952;2023-11-22T08:22:47;0.00;99.90
10883;DHT22;5494;51.796;10.952;2023-11-22T08:25:16;0.10;99.90
10883;DHT22;5494;51.796;10.952;2023-11-22T08:27:45;0.10;99.90
10883;DHT22;5494;51.796;10.952;2023-11-22T08:30:13;0.10;99.90
10883;DHT22;5494;51.796;10.952;2023-11-22T08:32:43;0.00;99.90
10883;DHT22;5494;51.796;10.952;2023-11-22T08:35:17;0.00;99.90
10883;DHT22;5494;51.796;10.952;2023-11-22T08:37:48;-0.10;99.90
10883;DHT22;5494;51.796;10.952;2023-11-22T08:40:17;0.10;99.90
10883;DHT22;5494;51.796;10.952;2023-11-22T08:42:47;0.30;99.90
10883;DHT22;5494;51.796;10.952;2023-11-22T08:45:16;0.40;95.60
10883;DHT22;5494;51.796;10.952;2023-11-22T08:47:44;0.30;99.90
10883;DHT22;5494;51.796;10.952;2023-11-22T08:50:13;0.10;99.90
10883;DHT22;5494;51.796;10.952;2023-11-22T08:52:42;0.10;99.90
10883;DHT22;5494;51.796;10.952;2023-11-22T08:55:13;0.30;99.90
10883;DHT22;5494;51.796;10.952;2023-11-22T08:57:42;0.40;99.90
10883;DHT22;5494;51.796;10.952;2023-11-22T09:00:11;0.50;86.80
10883;DHT22;5494;51.796;10.952;2023-11-22T09:02:41;0.80;19.70
10883;DHT22;5494;51.796;10.952;2023-11-22T09:05:09;0.80;1.00
10883;DHT22;5494;51.796;10.952;2023-11-22T09:07:43;1.00;6.70
10883;DHT22;5494;51.796;10.952;2023-11-22T09:10:12;1.10;1.00
10883;DHT22;5494;51.796;10.952;2023-11-22T09:12:42;1.20;1.00
10883;DHT22;5494;51.796;10.952;2023-11-22T09:15:12;1.30;1.00
10883;DHT22;5494;51.796;10.952;2023-11-22T09:17:43;1.30;1.00
10883;DHT22;5494;51.796;10.952;2023-11-22T09:20:14;1.30;1.00
10883;DHT22;5494;51.796;10.952;2023-11-22T09:22:44;1.20;1.00
10883;DHT22;5494;51.796;10.952;2023-11-22T09:25:17;1.20;1.00
10883;DHT22;5494;51.796;10.952;2023-11-22T09:27:50;0.90;1.00
10883;DHT22;5494;51.796;10.952;2023-11-22T09:30:23;0.70;1.00
10883;DHT22;5494;51.796;10.952;2023-11-22T09:33:04;0.80;1.00
10883;DHT22;5494;51.796;10.952;2023-11-22T09:35:34;1.00;1.00
10883;DHT22;5494;51.796;10.952;2023-11-22T09:38:04;1.10;1.00
10883;DHT22;5494;51.796;10.952;2023-11-22T09:40:40;1.30;1.00
10883;DHT22;5494;51.796;10.952;2023-11-22T09:43:10;1.60;1.00
10883;DHT22;5494;51.796;10.952;2023-11-22T09:45:38;1.60;1.00
10883;DHT22;5494;51.796;10.952;2023-11-22T09:48:12;1.60;1.00
10883;DHT22;5494;51.796;10.952;2023-11-22T09:50:50;1.50;1.00
10883;DHT22;5494;51.796;10.952;2023-11-22T09:53:30;1.50;1.00
10883;DHT22;5494;51.796;10.952;2023-11-22T09:56:03;1.50;1.00
10883;DHT22;5494;51.796;10.952;2023-11-22T09:58:34;1.30;1.00
10883;DHT22;5494;51.796;10.952;2023-11-22T10:01:03;1.40;1.00
10883;DHT22;5494;51.796;10.952;2023-11-22T10:03:32;1.60;1.00
10883;DHT22;5494;51.796;10.952;2023-11-22T10:06:00;1.70;99.90
10883;DHT22;5494;51.796;10.952;2023-11-22T10:08:31;1.80;1.00
10883;DHT22;5494;51.796;10.952;2023-11-22T10:11:01;2.00;1.00
10883;DHT22;5494;51.796;10.952;2023-11-22T10:13:31;2.20;1.00
10883;DHT22;5494;51.796;10.952;2023-11-22T10:16:09;2.50;99.90
10883;DHT22;5494;51.796;10.952;2023-11-22T10:18:40;2.90;99.90
10883;DHT22;5494;51.796;10.952;2023-11-22T10:21:20;3.30;99.90
10883;DHT22;5494;51.796;10.952;2023-11-22T10:23:52;3.80;99.90
10883;DHT22;5494;51.796;10.952;2023-11-22T10:26:24;4.10;99.90
10883;DHT22;5494;51.796;10.952;2023-11-22T10:28:55;4.10;1.00
10883;DHT22;5494;51.796;10.952;2023-11-22T10:31:25;3.70;1.00
10883;DHT22;5494;51.796;10.952;2023-11-22T10:33:54;3.60;99.90
10883;DHT22;5494;51.796;10.952;2023-11-22T10:36:24;3.30;1.00
10883;DHT22;5494;51.796;10.952;2023-11-22T10:38:54;3.50;99.90
10883;DHT22;5494;51.796;10.952;2023-11-22T10:41:23;3.70;1.00
10883;DHT22;5494;51.796;10.952;2023-11-22T10:43:52;3.70;24.40
10883;DHT22;5494;51.796;10.952;2023-11-22T10:46:27;3.80;99.90
10883;DHT22;5494;51.796;10.952;2023-11-22T10:48:58;4.00;21.30
10883;DHT22;5494;51.796;10.952;2023-11-22T10:51:31;3.80;1.00
10883;DHT22;5494;51.796;10.952;2023-11-22T10:54:01;3.40;1.00
10883;DHT22;5494;51.796;10.952;2023-11-22T10:56:38;3.00;1.00
10883;DHT22;5494;51.796;10.952;2023-11-22T10:59:10;2.70;99.90
10883;DHT22;5494;51.796;10.952;2023-11-22T11:01:45;2.30;1.00
10883;DHT22;5494;51.796;10.952;2023-11-22T11:04:20;2.00;76.00
10883;DHT22;5494;51.796;10.952;2023-11-22T11:06:54;1.70;1.00
10883;DHT22;5494;51.796;10.952;2023-11-22T11:09:24;1.50;91.10
10883;DHT22;5494;51.796;10.952;2023-11-22T11:12:00;1.30;99.90
10883;DHT22;5494;51.796;10.952;2023-11-22T11:14:35;1.40;1.00
10883;DHT22;5494;51.796;10.952;2023-11-22T11:17:04;1.40;1.00
10883;DHT22;5494;51.796;10.952;2023-11-22T11:19:33;1.50;99.90
10883;DHT22;5494;51.796;10.952;2023-11-22T11:22:03;1.50;1.00
10883;DHT22;5494;51.796;10.952;2023-11-22T11:24:38;1.60;99.90
10883;DHT22;5494;51.796;10.952;2023-11-22T11:27:10;1.80;1.00
10883;DHT22;5494;51.796;10.952;2023-11-22T11:29:38;2.20;86.80
10883;DHT22;5494;51.796;10.952;2023-11-22T11:32:10;2.20;1.00
10883;DHT22;5494;51.796;10.952;2023-11-22T11:34:47;2.30;99.90
10883;DHT22;5494;51.796;10.952;2023-11-22T11:37:19;2.30;99.90
10883;DHT22;5494;51.796;10.952;2023-11-22T11:39:46;2.30;1.00
10883;DHT22;5494;51.796;10.952;2023-11-22T11:42:16;2.50;1.00
10883;DHT22;5494;51.796;10.952;2023-11-22T11:45:02;2.40;99.90
10883;DHT22;5494;51.796;10.952;2023-11-22T11:47:33;2.50;1.00
10883;DHT22;5494;51.796;10.952;2023-11-22T11:50:01;2.50;1.00
10883;DHT22;5494;51.796;10.952;2023-11-22T11:52:31;2.50;99.90
10883;DHT22;5494;51.796;10.952;2023-11-22T11:54:59;2.30;1.00
10883;DHT22;5494;51.796;10.952;2023-11-22T11:57:31;2.10;1.00
10883;DHT22;5494;51.796;10.952;2023-11-22T12:00:00;1.80;1.00
10883;DHT22;5494;51.796;10.952;2023-11-22T12:02:37;1.80;1.00
10883;DHT22;5494;51.796;10.952;2023-11-22T12:05:06;2.00;1.00
10883;DHT22;5494;51.796;10.952;2023-11-22T12:07:36;1.90;99.90
10883;DHT22;5494;51.796;10.952;2023-11-22T12:10:05;1.70;99.90
10883;DHT22;5494;51.796;10.952;2023-11-22T12:12:35;1.70;1.00
10883;DHT22;5494;51.796;10.952;2023-11-22T12:15:05;1.70;1.00
10883;DHT22;5494;51.796;10.952;2023-11-22T12:17:34;1.90;34.50
10883;DHT22;5494;51.796;10.952;2023-11-22T12:20:10;1.80;99.90
10883;DHT22;5494;51.796;10.952;2023-11-22T12:22:41;1.70;99.90
10883;DHT22;5494;51.796;10.952;2023-11-22T12:25:10;1.70;1.00
10883;DHT22;5494;51.796;10.952;2023-11-22T12:27:41;1.70;99.90
10883;DHT22;5494;51.796;10.952;2023-11-22T12:30:26;1.60;1.00
10883;DHT22;5494;51.796;10.952;2023-11-22T12:32:56;1.50;1.00
10883;DHT22;5494;51.796;10.952;2023-11-22T12:35:24;1.60;99.90
10883;DHT22;5494;51.796;10.952;2023-11-22T12:37:53;1.70;1.00
10883;DHT22;5494;51.796;10.952;2023-11-22T12:40:21;1.90;1.00
10883;DHT22;5494;51.796;10.952;2023-11-22T12:42:52;1.70;99.90
10883;DHT22;5494;51.796;10.952;2023-11-22T12:45:21;1.60;99.90
10883;DHT22;5494;51.796;10.952;2023-11-22T12:47:51;1.50;99.90
10883;DHT22;5494;51.796;10.952;2023-11-22T12:50:29;1.60;1.00
10883;DHT22;5494;51.796;10.952;2023-11-22T12:52:59;1.90;99.90
10883;DHT22;5494;51.796;10.952;2023-11-22T12:55:35;2.00;34.00
10883;DHT22;5494;51.796;10.952;2023-11-22T12:58:05;1.90;1.00
10883;DHT22;5494;51.796;10.952;2023-11-22T13:00:34;1.70;1.00
10883;DHT22;5494;51.796;10.952;2023-11-22T13:03:02;1.60;1.00
10883;DHT22;5494;51.796;10.952;2023-11-22T13:05:31;1.50;1.00
10883;DHT22;5494;51.796;10.952;2023-11-22T13:08:00;1.60;99.90
10883;DHT22;5494;51.796;10.952;2023-11-22T13:10:29;1.80;99.90
10883;DHT22;5494;51.796;10.952;2023-11-22T13:12:58;1.90;99.90
10883;DHT22;5494;51.796;10.952;2023-11-22T13:15:29;1.80;1.00
10883;DHT22;5494;51.796;10.952;2023-11-22T13:17:57;1.90;99.90
10883;DHT22;5494;51.796;10.952;2023-11-22T13:20:26;1.90;1.00
10883;DHT22;5494;51.796;10.952;2023-11-22T13:22:55;1.90;1.00
10883;DHT22;5494;51.796;10.952;2023-11-22T13:25:26;2.10;50.30
10883;DHT22;5494;51.796;10.952;2023-11-22T13:27:54;2.10;1.00
10883;DHT22;5494;51.796;10.952;2023-11-22T13:30:24;2.00;80.10
10883;DHT22;5494;51.796;10.952;2023-11-22T13:32:53;2.00;4.60
10883;DHT22;5494;51.796;10.952;2023-11-22T13:35:23;1.90;1.00
10883;DHT22;5494;51.796;10.952;2023-11-22T13:37:54;1.80;99.90
10883;DHT22;5494;51.796;10.952;2023-11-22T13:40:22;2.00;99.90
10883;DHT22;5494;51.796;10.952;2023-11-22T13:42:52;1.90;99.90
10883;DHT22;5494;51.796;10.952;2023-11-22T13:45:20;1.90;99.90
10883;DHT22;5494;51.796;10.952;2023-11-22T13:47:51;1.80;99.90
10883;DHT22;5494;51.796;10.952;2023-11-22T13:50:24;1.70;99.90
10883;DHT22;5494;51.796;10.952;2023-11-22T13:52:54;1.70;99.90
10883;DHT22;5494;51.796;10.952;2023-11-22T13:55:24;1.60;99.90
10883;DHT22;5494;51.796;10.952;2023-11-22T13:57:53;1.50;99.90
10883;DHT22;5494;51.796;10.952;2023-11-22T14:00:23;1.40;1.00
10883;DHT22;5494;51.796;10.952;2023-11-22T14:02:56;1.50;1.00
10883;DHT22;5494;51.796;10.952;2023-11-22T14:05:32;1.30;1.00
10883;DHT22;5494;51.796;10.952;2023-11-22T14:08:03;1.40;1.00
10883;DHT22;5494;51.796;10.952;2023-11-22T14:10:33;1.50;1.00
10883;DHT22;5494;51.796;10.952;2023-11-22T14:13:01;1.40;1.00
10883;DHT22;5494;51.796;10.952;2023-11-22T14:15:31;1.40;1.00
10883;DHT22;5494;51.796;10.952;2023-11-22T14:18:01;1.30;1.00
10883;DHT22;5494;51.796;10.952;2023-11-22T14:20:30;1.20;1.00
10883;DHT22;5494;51.796;10.952;2023-11-22T14:23:01;1.30;1.00
10883;DHT22;5494;51.796;10.952;2023-11-22T14:25:30;1.20;1.00
10883;DHT22;5494;51.796;10.952;2023-11-22T14:27:58;1.10;1.00
10883;DHT22;5494;51.796;10.952;2023-11-22T14:30:27;1.10;1.00
10883;DHT22;5494;51.796;10.952;2023-11-22T14:32:57;1.10;1.00
10883;DHT22;5494;51.796;10.952;2023-11-22T14:35:27;1.00;1.00
10883;DHT22;5494;51.796;10.952;2023-11-22T14:37:56;0.90;1.00
10883;DHT22;5494;51.796;10.952;2023-11-22T14:40:25;0.90;1.00
10883;DHT22;5494;51.796;10.952;2023-11-22T14:42:53;1.00;1.00
10883;DHT22;5494;51.796;10.952;2023-11-22T14:45:23;1.00;1.00
10883;DHT22;5494;51.796;10.952;2023-11-22T14:47:53;1.10;1.00
10883;DHT22;5494;51.796;10.952;2023-11-22T14:50:23;1.20;1.00
10883;DHT22;5494;51.796;10.952;2023-11-22T14:52:55;1.10;1.00
10883;DHT22;5494;51.796;10.952;2023-11-22T14:55:24;1.10;1.00
10883;DHT22;5494;51.796;10.952;2023-11-22T14:57:53;1.10;1.00
10883;DHT22;5494;51.796;10.952;2023-11-22T15:00:24;1.20;1.00
10883;DHT22;5494;51.796;10.952;2023-11-22T15:02:52;1.20;1.00
10883;DHT22;5494;51.796;10.952;2023-11-22T15:05:24;1.30;1.00
10883;DHT22;5494;51.796;10.952;2023-11-22T15:07:52;1.30;1.00
10883;DHT22;5494;51.796;10.952;2023-11-22T15:10:23;1.40;1.00
10883;DHT22;5494;51.796;10.952;2023-11-22T15:12:52;1.50;1.00
10883;DHT22;5494;51.796;10.952;2023-11-22T15:15:22;1.50;1.00
10883;DHT22;5494;51.796;10.952;2023-11-22T15:17:52;1.50;1.00
10883;DHT22;5494;51.796;10.952;2023-11-22T15:20:21;1.60;1.00
10883;DHT22;5494;51.796;10.952;2023-11-22T15:22:50;1.60;1.00
10883;DHT22;5494;51.796;10.952;2023-11-22T15:25:19;1.70;1.00
10883;DHT22;5494;51.796;10.952;2023-11-22T15:27:48;1.60;1.00
10883;DHT22;5494;51.796;10.952;2023-11-22T15:30:17;1.60;1.00
10883;DHT22;5494;51.796;10.952;2023-11-22T15:32:46;1.50;34.80
10883;DHT22;5494;51.796;10.952;2023-11-22T15:35:15;1.50;99.90
10883;DHT22;5494;51.796;10.952;2023-11-22T15:37:44;1.50;1.00
10883;DHT22;5494;51.796;10.952;2023-11-22T15:40:12;1.40;99.90
10883;DHT22;5494;51.796;10.952;2023-11-22T15:42:44;1.40;99.90
10883;DHT22;5494;51.796;10.952;2023-11-22T15:45:13;1.40;1.00
10883;DHT22;5494;51.796;10.952;2023-11-22T15:47:41;1.40;1.00
10883;DHT22;5494;51.796;10.952;2023-11-22T15:50:12;1.50;99.90
10883;DHT22;5494;51.796;10.952;2023-11-22T15:52:43;1.50;64.40
10883;DHT22;5494;51.796;10.952;2023-11-22T15:55:11;1.50;99.90
10883;DHT22;5494;51.796;10.952;2023-11-22T15:57:40;1.60;1.00
10883;DHT22;5494;51.796;10.952;2023-11-22T16:00:09;1.50;99.90
10883;DHT22;5494;51.796;10.952;2023-11-22T16:02:39;1.50;99.90